createdAt,value
2022-07-25T00:01:49.497Z,15.33
2022-07-25T00:04:17.838Z,25.37
2022-07-25T00:06:45.975Z,8.90
2022-07-25T00:09:12.823Z,9.73
2022-07-25T00:11:39.653Z,8.40
2022-07-25T00:14:07.385Z,11.83
2022-07-25T00:16:34.488Z,9.40
2022-07-25T00:19:01.291Z,9.50
2022-07-25T00:21:28.456Z,11.33
2022-07-25T00:23:55.138Z,9.10
2022-07-25T00:26:21.847Z,9.77
2022-07-25T00:28:48.543Z,12.93
2022-07-25T00:31:15.535Z,11.03
2022-07-25T00:33:42.386Z,11.77
2022-07-25T00:36:09.670Z,10.43
2022-07-25T00:38:36.369Z,9.43
2022-07-25T00:41:04.346Z,9.80
2022-07-25T00:43:31.545Z,8.27
2022-07-25T00:45:59.014Z,9.47
2022-07-25T00:48:27.777Z,9.87
2022-07-25T00:50:58.593Z,9.17
2022-07-25T00:53:25.811Z,9.20
2022-07-25T00:55:53.078Z,11.97
2022-07-25T00:58:19.807Z,8.53
2022-07-25T01:00:47.376Z,10.80
2022-07-25T01:03:14.298Z,9.70
2022-07-25T01:05:41.153Z,15.93
2022-07-25T01:08:08.868Z,11.80
2022-07-25T01:10:36.427Z,9.40
2022-07-25T01:13:03.327Z,11.33
2022-07-25T01:15:30.150Z,8.37
2022-07-25T01:17:57.145Z,10.33
2022-07-25T01:20:26.872Z,10.10
2022-07-25T01:22:54.019Z,10.60
2022-07-25T01:25:21.258Z,11.23
2022-07-25T01:27:52.941Z,9.63
2022-07-25T01:30:23.153Z,9.10
2022-07-25T01:32:49.871Z,8.43
2022-07-25T01:35:16.637Z,11.00
2022-07-25T01:37:45.526Z,10.93
2022-07-25T01:40:14.465Z,10.00
2022-07-25T01:42:42.090Z,9.10
2022-07-25T01:45:09.678Z,11.70
2022-07-25T01:47:36.432Z,11.13
2022-07-25T01:50:04.480Z,13.53
2022-07-25T01:52:31.280Z,16.07
2022-07-25T01:54:58.019Z,9.60
2022-07-25T01:57:26.593Z,8.33
2022-07-25T01:59:58.396Z,9.00
2022-07-25T02:02:25.659Z,8.83
2022-07-25T02:04:52.478Z,8.77
2022-07-25T02:07:19.252Z,12.70
2022-07-25T02:09:45.971Z,9.00
2022-07-25T02:12:12.738Z,9.87
2022-07-25T02:14:39.592Z,17.67
2022-07-25T02:17:06.517Z,8.33
2022-07-25T02:19:33.267Z,16.00
2022-07-25T02:22:00.290Z,10.17
2022-07-25T02:24:27.016Z,13.80
2022-07-25T02:26:53.843Z,8.00
2022-07-25T02:29:21.900Z,8.47
2022-07-25T02:31:49.401Z,11.50
2022-07-25T02:34:16.082Z,8.43
2022-07-25T02:36:43.187Z,11.27
2022-07-25T02:39:09.936Z,11.03
2022-07-25T02:41:36.757Z,8.50
2022-07-25T02:44:04.492Z,7.60
2022-07-25T02:46:31.499Z,10.47
2022-07-25T02:48:59.039Z,9.87
2022-07-25T02:51:25.880Z,11.07
2022-07-25T02:53:57.801Z,12.63
2022-07-25T02:56:25.952Z,9.77
2022-07-25T02:58:56.352Z,9.07
2022-07-25T03:01:23.067Z,9.60
2022-07-25T03:03:49.880Z,9.30
2022-07-25T03:06:16.748Z,11.17
2022-07-25T03:08:43.473Z,9.23
2022-07-25T03:11:10.930Z,8.50
2022-07-25T03:13:37.593Z,10.20
2022-07-25T03:16:04.590Z,10.20
2022-07-25T03:18:31.352Z,12.60
2022-07-25T03:20:58.046Z,9.70
2022-07-25T03:23:27.223Z,9.87
2022-07-25T03:25:54.705Z,11.23
2022-07-25T03:28:21.400Z,8.97
2022-07-25T03:30:48.102Z,12.70
2022-07-25T03:33:14.749Z,12.20
2022-07-25T03:35:41.570Z,9.93
2022-07-25T03:38:08.346Z,8.27
2022-07-25T03:40:36.464Z,11.13
2022-07-25T03:43:03.291Z,9.43
2022-07-25T03:45:30.152Z,10.77
2022-07-25T03:47:56.883Z,12.83
2022-07-25T03:50:23.615Z,13.27
2022-07-25T03:52:50.319Z,14.27
2022-07-25T03:55:17.088Z,10.17
2022-07-25T03:57:43.815Z,11.93
2022-07-25T04:00:12.506Z,14.23
2022-07-25T04:02:39.604Z,11.80
2022-07-25T04:05:08.443Z,12.90
2022-07-25T04:07:35.920Z,11.30
2022-07-25T04:10:04.584Z,15.53
2022-07-25T04:12:31.379Z,13.87
2022-07-25T04:14:58.343Z,10.50
2022-07-25T04:17:25.885Z,13.73
2022-07-25T04:19:52.855Z,9.23
2022-07-25T04:22:19.596Z,9.80
2022-07-25T04:24:46.354Z,11.47
2022-07-25T04:27:13.036Z,11.37
2022-07-25T04:29:39.776Z,9.17
2022-07-25T04:32:06.886Z,14.80
2022-07-25T04:34:33.642Z,10.07
2022-07-25T04:37:00.489Z,10.33
2022-07-25T04:39:27.145Z,13.80
2022-07-25T04:41:53.838Z,11.10
2022-07-25T04:44:20.508Z,9.20
2022-07-25T04:46:47.205Z,8.47
2022-07-25T04:49:13.966Z,7.97
2022-07-25T04:51:40.701Z,15.73
2022-07-25T04:54:07.677Z,12.30
2022-07-25T04:56:34.781Z,14.80
2022-07-25T04:59:06.260Z,11.23
2022-07-25T05:01:34.707Z,12.33
2022-07-25T05:04:01.589Z,10.43
2022-07-25T05:06:28.313Z,9.87
2022-07-25T05:08:55.466Z,11.60
2022-07-25T05:11:22.419Z,9.00
2022-07-25T05:13:49.224Z,8.90
2022-07-25T05:16:16.032Z,8.70
2022-07-25T05:18:42.855Z,10.97
2022-07-25T05:21:13.059Z,12.67
2022-07-25T05:23:40.987Z,11.87
2022-07-25T05:26:07.844Z,15.47
2022-07-25T05:28:34.563Z,11.37
2022-07-25T05:31:01.375Z,9.57
2022-07-25T05:33:28.167Z,10.13
2022-07-25T05:35:54.827Z,19.93
2022-07-25T05:38:21.540Z,13.90
2022-07-25T05:40:49.025Z,9.23
2022-07-25T05:43:15.705Z,9.60
2022-07-25T05:45:42.528Z,21.87
2022-07-25T05:48:09.226Z,9.10
2022-07-25T05:50:38.721Z,13.50
2022-07-25T05:53:05.421Z,10.23
2022-07-25T05:55:32.414Z,10.93
2022-07-25T05:57:59.351Z,11.90
2022-07-25T06:00:26.310Z,11.13
2022-07-25T06:02:53.262Z,8.93
2022-07-25T06:05:20.003Z,14.20
2022-07-25T06:07:46.755Z,12.80
2022-07-25T06:10:13.436Z,11.60
2022-07-25T06:12:40.153Z,9.70
2022-07-25T06:15:07.531Z,15.73
2022-07-25T06:17:39.391Z,11.40
2022-07-25T06:20:06.521Z,54.13
2022-07-25T06:22:33.287Z,35.87
2022-07-25T06:25:02.227Z,40.77
2022-07-25T06:27:29.537Z,34.00
2022-07-25T06:29:56.510Z,47.20
2022-07-25T06:32:23.231Z,45.57
2022-07-25T06:34:49.980Z,45.63
2022-07-25T06:37:16.670Z,37.10
2022-07-25T06:39:45.835Z,19.40
2022-07-25T06:42:12.922Z,27.30
2022-07-25T06:44:39.718Z,25.03
2022-07-25T06:47:10.528Z,17.97
2022-07-25T06:49:37.307Z,22.77
2022-07-25T06:52:04.446Z,22.37
2022-07-25T06:54:31.137Z,18.87
2022-07-25T06:56:57.890Z,16.10
2022-07-25T06:59:24.690Z,14.60
2022-07-25T07:01:51.914Z,12.87
2022-07-25T07:04:18.777Z,12.20
2022-07-25T07:06:45.473Z,13.03
2022-07-25T07:09:12.248Z,14.50
2022-07-25T07:11:38.891Z,16.17
2022-07-25T07:14:05.887Z,22.50
2022-07-25T07:16:33.189Z,9.77
2022-07-25T07:19:00.060Z,12.03
2022-07-25T07:21:26.739Z,14.60
2022-07-25T07:23:53.877Z,9.97
2022-07-25T07:26:21.401Z,8.43
2022-07-25T07:28:48.174Z,11.23
2022-07-25T07:31:18.336Z,9.30
2022-07-25T07:33:45.677Z,8.77
2022-07-25T07:36:12.548Z,8.63
2022-07-25T07:38:39.915Z,8.30
2022-07-25T07:41:06.660Z,12.20
2022-07-25T07:43:33.393Z,8.67
2022-07-25T07:46:01.315Z,8.27
2022-07-25T07:48:29.729Z,12.33
2022-07-25T07:50:56.765Z,7.00
2022-07-25T07:53:43.496Z,8.43
2022-07-25T07:56:10.317Z,8.60
2022-07-25T07:58:37.018Z,8.57
2022-07-25T08:01:04.542Z,11.20
2022-07-25T08:03:31.518Z,10.47
2022-07-25T08:05:58.348Z,9.57
2022-07-25T08:08:30.936Z,9.20
2022-07-25T08:10:59.267Z,12.50
2022-07-25T08:13:29.085Z,13.00
2022-07-25T08:15:59.534Z,10.30
2022-07-25T08:18:29.803Z,14.80
2022-07-25T08:20:56.949Z,9.27
2022-07-25T08:23:25.379Z,8.23
2022-07-25T08:25:52.264Z,12.53
2022-07-25T08:28:19.709Z,20.97
2022-07-25T08:30:47.744Z,10.07
2022-07-25T08:33:18.296Z,17.33
2022-07-25T08:35:54.481Z,16.20
2022-07-25T08:38:22.190Z,11.73
2022-07-25T08:40:48.969Z,10.03
2022-07-25T08:43:16.873Z,9.07
2022-07-25T08:45:49.785Z,11.00
2022-07-25T08:48:25.964Z,7.17
2022-07-25T08:50:53.987Z,7.00
2022-07-25T08:53:36.893Z,10.23
2022-07-25T08:56:11.526Z,17.50
2022-07-25T08:58:40.884Z,9.70
2022-07-25T09:01:08.156Z,6.90
2022-07-25T09:03:36.274Z,9.43
2022-07-25T09:06:17.460Z,8.17
2022-07-25T09:08:54.514Z,7.27
2022-07-25T09:11:32.625Z,10.33
2022-07-25T09:14:05.899Z,6.57
2022-07-25T09:16:37.385Z,15.20
2022-07-25T09:19:17.604Z,7.03
2022-07-25T09:21:46.091Z,8.90
2022-07-25T09:24:17.991Z,10.47
2022-07-25T09:26:50.229Z,7.90
2022-07-25T09:29:23.980Z,9.40
2022-07-25T09:31:52.293Z,6.70
2022-07-25T09:34:37.742Z,10.13
2022-07-25T09:37:06.367Z,5.77
2022-07-25T09:39:48.476Z,7.13
2022-07-25T09:42:25.531Z,9.13
2022-07-25T09:45:04.269Z,7.30
2022-07-25T09:47:32.697Z,6.50
2022-07-25T09:49:59.593Z,6.40
2022-07-25T09:52:26.313Z,6.73
2022-07-25T09:54:54.825Z,6.53
2022-07-25T09:57:24.137Z,8.20
2022-07-25T09:59:50.886Z,6.70
2022-07-25T10:02:45.201Z,5.80
2022-07-25T10:05:32.287Z,6.70
2022-07-25T10:07:59.760Z,7.90
2022-07-25T10:10:32.414Z,6.07
2022-07-25T10:13:10.249Z,6.07
2022-07-25T10:15:43.756Z,8.20
2022-07-25T10:18:10.529Z,5.73
2022-07-25T10:20:37.781Z,5.57
2022-07-25T10:23:34.764Z,5.53
2022-07-25T10:26:09.798Z,5.90
2022-07-25T10:28:42.590Z,5.90
2022-07-25T10:31:22.103Z,6.70
2022-07-25T10:33:55.688Z,7.40
2022-07-25T10:36:23.770Z,11.73
2022-07-25T10:38:57.768Z,6.67
2022-07-25T10:41:28.846Z,8.13
2022-07-25T10:44:01.485Z,5.30
2022-07-25T10:46:30.936Z,7.70
2022-07-25T10:49:04.037Z,8.53
2022-07-25T10:51:41.681Z,5.47
2022-07-25T10:54:16.504Z,4.37
2022-07-25T10:56:57.852Z,6.53
2022-07-25T10:59:29.015Z,5.10
2022-07-25T11:01:56.130Z,5.17
2022-07-25T11:04:23.884Z,4.63
2022-07-25T11:06:50.692Z,5.77
2022-07-25T11:09:27.172Z,7.93
2022-07-25T11:11:57.436Z,5.33
2022-07-25T11:14:38.121Z,12.07
2022-07-25T11:17:13.221Z,6.30
2022-07-25T11:19:40.920Z,5.23
2022-07-25T11:22:08.507Z,6.13
2022-07-25T11:24:44.241Z,5.00
2022-07-25T11:27:22.713Z,4.77
2022-07-25T11:29:49.877Z,3.73
2022-07-25T11:32:16.955Z,4.47
2022-07-25T11:34:53.302Z,5.17
2022-07-25T11:37:20.879Z,3.77
2022-07-25T11:39:48.244Z,3.90
2022-07-25T11:42:19.397Z,5.57
2022-07-25T11:44:51.410Z,3.67
2022-07-25T11:47:28.150Z,4.27
2022-07-25T11:49:56.754Z,4.60
2022-07-25T11:52:36.006Z,6.83
2022-07-25T11:55:11.514Z,5.80
2022-07-25T11:57:46.641Z,3.63
2022-07-25T12:00:19.391Z,4.93
2022-07-25T12:02:47.952Z,3.70
2022-07-25T12:05:17.574Z,3.30
2022-07-25T12:07:53.050Z,3.80
2022-07-25T12:10:19.690Z,3.40
2022-07-25T12:12:53.355Z,4.03
2022-07-25T12:15:29.654Z,4.23
2022-07-25T12:17:58.156Z,5.60
2022-07-25T12:20:31.283Z,6.90
2022-07-25T12:23:07.438Z,3.20
2022-07-25T12:25:37.083Z,3.47
2022-07-25T12:28:04.293Z,4.80
2022-07-25T12:30:31.851Z,5.17
2022-07-25T12:33:00.219Z,4.03
2022-07-25T12:35:27.876Z,4.53
2022-07-25T12:37:55.563Z,6.73
2022-07-25T12:40:22.767Z,4.33
2022-07-25T12:42:50.069Z,4.43
2022-07-25T12:45:17.890Z,4.27
2022-07-25T12:47:46.399Z,4.43
2022-07-25T12:50:14.564Z,3.80
2022-07-25T12:52:42.598Z,3.50
2022-07-25T12:55:12.450Z,4.73
2022-07-25T12:57:39.527Z,4.77
2022-07-25T13:00:09.259Z,3.37
2022-07-25T13:02:36.193Z,3.50
2022-07-25T13:05:02.981Z,4.13
2022-07-25T13:07:29.773Z,3.80
2022-07-25T13:09:56.475Z,3.87
2022-07-25T13:12:24.096Z,7.37
2022-07-25T13:14:51.717Z,4.50
2022-07-25T13:17:21.343Z,4.93
2022-07-25T13:19:50.285Z,4.33
2022-07-25T13:22:16.995Z,8.93
2022-07-25T13:24:43.836Z,5.53
2022-07-25T13:27:10.598Z,4.73
2022-07-25T13:29:37.287Z,4.20
2022-07-25T13:32:04.214Z,7.43
2022-07-25T13:34:30.961Z,4.00
2022-07-25T13:36:58.366Z,6.50
2022-07-25T13:39:25.042Z,3.90
2022-07-25T13:41:51.774Z,3.77
2022-07-25T13:44:18.817Z,4.00
2022-07-25T13:46:49.845Z,4.30
2022-07-25T13:49:18.168Z,5.53
2022-07-25T13:51:45.568Z,3.73
2022-07-25T13:54:12.941Z,5.53
2022-07-25T13:56:41.384Z,4.00
2022-07-25T13:59:08.848Z,4.30
2022-07-25T14:01:35.953Z,4.17
2022-07-25T14:04:02.712Z,4.57
2022-07-25T14:06:29.537Z,4.07
2022-07-25T14:08:56.278Z,4.10
2022-07-25T14:11:26.020Z,4.50
2022-07-25T14:13:56.939Z,4.23
2022-07-25T14:16:23.599Z,4.27
2022-07-25T14:18:50.814Z,20.67
2022-07-25T14:21:17.509Z,10.87
2022-07-25T14:23:44.229Z,4.30
2022-07-25T14:26:10.905Z,4.37
2022-07-25T14:28:37.572Z,9.33
2022-07-25T14:31:04.463Z,6.23
2022-07-25T14:33:31.286Z,8.40
2022-07-25T14:35:58.941Z,5.53
2022-07-25T14:38:25.659Z,4.90
2022-07-25T14:40:52.346Z,5.60
2022-07-25T14:43:19.053Z,5.40
2022-07-25T14:45:45.739Z,5.47
2022-07-25T14:48:12.426Z,5.40
2022-07-25T14:50:39.112Z,8.80
2022-07-25T14:53:05.801Z,6.07
2022-07-25T14:55:32.526Z,6.13
2022-07-25T14:58:02.404Z,6.03
2022-07-25T15:00:29.762Z,6.17
2022-07-25T15:02:56.962Z,5.30
2022-07-25T15:05:23.867Z,9.10
2022-07-25T15:07:50.951Z,9.80
2022-07-25T15:10:17.679Z,5.37
2022-07-25T15:12:44.330Z,8.43
2022-07-25T15:15:11.536Z,6.00
2022-07-25T15:17:39.735Z,7.13
2022-07-25T15:20:07.223Z,6.53
2022-07-25T15:22:33.895Z,5.37
2022-07-25T15:27:47.381Z,11.27
2022-07-25T15:30:14.133Z,7.47
2022-07-25T15:32:40.811Z,6.50
2022-07-25T15:35:09.429Z,16.93
2022-07-25T15:37:36.170Z,7.30
2022-07-25T15:40:03.933Z,6.20
2022-07-25T15:42:32.082Z,5.57
2022-07-25T15:45:30.218Z,14.90
2022-07-25T15:47:50.689Z,6.73
2022-07-25T15:50:18.766Z,5.90
2022-07-25T15:52:45.809Z,11.40
2022-07-25T15:55:12.721Z,14.60
2022-07-25T15:57:39.480Z,4.90
2022-07-25T16:00:08.578Z,9.80
2022-07-25T16:02:35.899Z,6.93
2022-07-25T16:05:03.988Z,6.47
2022-07-25T16:07:30.796Z,6.00
2022-07-25T16:09:57.567Z,9.43
2022-07-25T16:12:28.452Z,6.97
2022-07-25T16:14:55.927Z,6.17
2022-07-25T16:17:23.116Z,12.00
2022-07-25T16:19:49.982Z,6.23
2022-07-25T16:22:16.943Z,11.90
2022-07-25T16:24:43.685Z,6.97
2022-07-25T16:27:10.515Z,10.53
2022-07-25T16:29:37.629Z,8.00
2022-07-25T16:32:05.518Z,9.30
2022-07-25T16:34:32.869Z,5.37
2022-07-25T16:37:00.387Z,5.13
2022-07-25T16:39:27.288Z,6.00
2022-07-25T16:41:54.192Z,7.53
2022-07-25T16:44:23.643Z,5.53
2022-07-25T16:46:50.952Z,8.13
2022-07-25T16:49:18.578Z,8.70
2022-07-25T16:51:45.996Z,5.57
2022-07-25T16:54:12.807Z,5.93
2022-07-25T16:56:40.520Z,8.00
2022-07-25T16:59:08.182Z,5.63
2022-07-25T17:01:36.250Z,6.43
2022-07-25T17:04:03.816Z,6.90
2022-07-25T17:06:30.826Z,5.90
2022-07-25T17:08:58.610Z,5.47
2022-07-25T17:11:25.503Z,7.33
2022-07-25T17:13:52.150Z,6.70
2022-07-25T17:16:18.961Z,6.70
2022-07-25T17:18:45.713Z,6.50
2022-07-25T17:21:15.208Z,5.10
2022-07-25T17:23:42.005Z,7.20
2022-07-25T17:26:08.796Z,7.50
2022-07-25T17:28:35.923Z,9.10
2022-07-25T17:31:02.689Z,5.03
2022-07-25T17:33:29.409Z,5.40
2022-07-25T17:35:56.272Z,5.93
2022-07-25T17:38:26.944Z,8.90
2022-07-25T17:40:55.195Z,5.87
2022-07-25T17:43:21.894Z,8.27
2022-07-25T17:45:48.647Z,11.20
2022-07-25T17:48:15.829Z,9.27
2022-07-25T17:50:42.670Z,9.30
2022-07-25T17:53:09.318Z,12.20
2022-07-25T17:55:38.939Z,11.27
2022-07-25T17:58:06.077Z,10.63
2022-07-25T18:00:32.796Z,27.63
2022-07-25T18:02:59.575Z,7.67
2022-07-25T18:05:26.723Z,9.77
2022-07-25T18:07:53.967Z,8.90
2022-07-25T18:10:23.747Z,12.70
2022-07-25T18:12:50.688Z,7.60
2022-07-25T18:15:17.517Z,8.80
2022-07-25T18:17:45.669Z,14.77
2022-07-25T18:20:13.488Z,7.30
2022-07-25T18:22:41.240Z,13.53
2022-07-25T18:25:12.924Z,13.27
2022-07-25T18:27:45.038Z,9.03
2022-07-25T18:30:13.029Z,9.17
2022-07-25T18:32:40.939Z,8.30
2022-07-25T18:35:08.073Z,11.20
2022-07-25T18:37:35.390Z,8.90
2022-07-25T18:40:02.265Z,12.07
2022-07-25T18:42:30.059Z,8.27
2022-07-25T18:44:57.207Z,6.80
2022-07-25T18:47:27.903Z,10.23
2022-07-25T18:49:59.138Z,9.80
2022-07-25T18:52:25.841Z,6.00
2022-07-25T18:54:52.551Z,6.13
2022-07-25T18:57:19.478Z,8.40
2022-07-25T18:59:46.308Z,9.10
2022-07-25T19:02:13.073Z,5.97
2022-07-25T19:04:39.807Z,6.47
2022-07-25T19:07:07.445Z,6.13
2022-07-25T19:09:34.169Z,15.87
2022-07-25T19:12:01.232Z,10.37
2022-07-25T19:14:28.793Z,9.27
2022-07-25T19:16:55.579Z,8.53
2022-07-25T19:19:22.285Z,5.30
2022-07-25T19:21:49.124Z,15.20
2022-07-25T19:24:16.270Z,4.00
2022-07-25T19:26:43.044Z,8.63
2022-07-25T19:29:16.396Z,7.57
2022-07-25T19:31:43.412Z,7.90
2022-07-25T19:34:11.062Z,5.70
2022-07-25T19:36:38.269Z,7.37
2022-07-25T19:39:06.147Z,8.00
2022-07-25T19:41:33.262Z,12.00
2022-07-25T19:43:59.921Z,4.97
2022-07-25T19:46:31.070Z,9.90
2022-07-25T19:48:58.107Z,8.07
2022-07-25T19:51:25.789Z,6.30
2022-07-25T19:53:52.662Z,5.13
2022-07-25T19:56:20.145Z,9.67
2022-07-25T19:58:46.888Z,5.93
2022-07-25T20:01:14.056Z,9.57
2022-07-25T20:03:41.586Z,6.70
2022-07-25T20:06:08.997Z,13.73
2022-07-25T20:08:37.153Z,8.80
2022-07-25T20:11:03.929Z,4.40
2022-07-25T20:13:30.713Z,5.23
2022-07-25T20:15:58.594Z,6.73
2022-07-25T20:18:25.614Z,10.53
2022-07-25T20:20:52.810Z,9.33
2022-07-25T20:23:19.629Z,9.93
2022-07-25T20:25:46.327Z,9.40
2022-07-25T20:28:13.614Z,9.00
2022-07-25T20:30:40.405Z,6.10
2022-07-25T20:33:09.407Z,14.50
2022-07-25T20:35:37.964Z,5.27
2022-07-25T20:38:09.208Z,6.73
2022-07-25T20:40:46.362Z,6.73
2022-07-25T20:43:16.067Z,7.93
2022-07-25T20:45:43.047Z,5.33
2022-07-25T20:48:09.947Z,6.93
2022-07-25T20:50:37.895Z,5.07
2022-07-25T20:53:06.116Z,4.90
2022-07-25T20:55:33.617Z,7.83
2022-07-25T20:58:00.873Z,7.00
2022-07-25T21:00:28.843Z,9.80
2022-07-25T21:02:56.106Z,12.70
2022-07-25T21:05:23.615Z,7.73
2022-07-25T21:07:50.481Z,12.03
2022-07-25T21:10:17.440Z,7.40
2022-07-25T21:12:45.347Z,13.10
2022-07-25T21:15:12.929Z,5.40
2022-07-25T21:17:39.847Z,6.57
2022-07-25T21:20:08.866Z,9.73
2022-07-25T21:22:36.018Z,8.10
2022-07-25T21:25:02.814Z,8.13
2022-07-25T21:27:29.560Z,6.73
2022-07-25T21:29:56.372Z,8.37
2022-07-25T21:32:23.504Z,5.03
2022-07-25T21:34:50.423Z,8.30
2022-07-25T21:37:17.204Z,11.03
2022-07-25T21:39:44.211Z,5.03
2022-07-25T21:42:11.695Z,8.20
2022-07-25T21:44:43.525Z,5.47
2022-07-25T21:47:11.187Z,6.37
2022-07-25T21:49:57.015Z,6.40
2022-07-25T21:52:30.042Z,9.73
2022-07-25T21:55:03.468Z,11.60
2022-07-25T21:57:30.587Z,7.83
2022-07-25T21:59:57.319Z,4.40
2022-07-25T22:02:24.007Z,7.10
2022-07-25T22:04:50.876Z,7.63
2022-07-25T22:07:17.933Z,6.97
2022-07-25T22:09:45.511Z,7.13
2022-07-25T22:12:12.249Z,13.43
2022-07-25T22:14:38.987Z,4.20
2022-07-25T22:17:05.966Z,5.43
2022-07-25T22:19:33.288Z,3.10
2022-07-25T22:22:00.512Z,14.93
2022-07-25T22:24:27.445Z,5.70
2022-07-25T22:26:54.311Z,11.20
2022-07-25T22:29:21.384Z,3.20
2022-07-25T22:31:48.707Z,8.90
2022-07-25T22:34:15.571Z,6.83
2022-07-25T22:36:42.643Z,7.97
2022-07-25T22:39:10.260Z,3.97
2022-07-25T22:41:38.254Z,7.83
2022-07-25T22:44:05.271Z,10.57
2022-07-25T22:46:32.223Z,8.67
2022-07-25T22:48:59.354Z,6.00
2022-07-25T22:51:26.835Z,8.27
2022-07-25T22:53:53.751Z,4.00
2022-07-25T22:56:21.230Z,8.47
2022-07-25T22:58:49.155Z,6.47
2022-07-25T23:01:16.894Z,7.50
2022-07-25T23:03:43.684Z,7.53
2022-07-25T23:06:10.707Z,6.80
2022-07-25T23:08:37.414Z,4.30
2022-07-25T23:11:06.105Z,4.07
2022-07-25T23:13:33.821Z,8.33
2022-07-25T23:16:00.847Z,6.83
2022-07-25T23:18:30.062Z,4.23
2022-07-25T23:20:56.863Z,8.80
2022-07-25T23:23:23.690Z,4.07
2022-07-25T23:25:50.393Z,8.23
2022-07-25T23:28:17.057Z,6.93
2022-07-25T23:30:43.807Z,11.10
2022-07-25T23:33:10.506Z,6.53
2022-07-25T23:35:37.887Z,3.57
2022-07-25T23:38:04.733Z,8.47
2022-07-25T23:40:31.447Z,3.43
2022-07-25T23:42:58.167Z,5.87
2022-07-25T23:45:26.980Z,4.37
2022-07-25T23:47:55.531Z,5.80
2022-07-25T23:50:23.056Z,9.53
2022-07-25T23:52:50.082Z,6.23
2022-07-25T23:55:16.807Z,6.03
2022-07-25T23:57:43.652Z,14.60
